createdAt,value
2017-07-25T00:00:30.761Z,15.7
2017-07-25T00:01:29.834Z,15.8
2017-07-25T00:02:28.899Z,15.7
2017-07-25T00:03:28.256Z,15.7
2017-07-25T00:04:27.456Z,15.7
2017-07-25T00:05:26.401Z,15.7
2017-07-25T00:06:25.866Z,15.7
2017-07-25T00:07:24.939Z,15.8
2017-07-25T00:08:24.522Z,15.8
2017-07-25T00:10:23.098Z,15.8
2017-07-25T00:11:22.179Z,15.8
2017-07-25T00:12:21.369Z,15.8
2017-07-25T00:13:20.440Z,15.8
2017-07-25T00:14:19.909Z,15.8
2017-07-25T00:15:19.110Z,15.8
2017-07-25T00:16:18.307Z,15.8
2017-07-25T00:17:18.006Z,15.8
2017-07-25T00:17:48.520Z,15.8
2017-07-25T00:18:18.904Z,15.8
2017-07-25T00:18:49.400Z,15.8
2017-07-25T00:20:15.655Z,15.8
2017-07-25T00:21:14.740Z,15.8
2017-07-25T00:22:13.926Z,15.8
2017-07-25T00:23:13.116Z,15.8
2017-07-25T00:24:12.188Z,15.8
2017-07-25T00:26:11.277Z,15.8
2017-07-25T00:27:10.357Z,15.8
2017-07-25T00:28:09.332Z,15.7
2017-07-25T00:29:09.043Z,15.8
2017-07-25T00:30:08.143Z,15.8
2017-07-25T00:31:07.351Z,15.8
2017-07-25T00:32:06.308Z,15.7
2017-07-25T00:34:04.766Z,15.7
2017-07-25T00:35:04.113Z,15.7
2017-07-25T00:36:03.198Z,15.7
2017-07-25T00:37:02.785Z,15.7
2017-07-25T00:38:01.746Z,15.7
2017-07-25T00:39:01.208Z,15.7
2017-07-25T00:40:00.282Z,15.7
2017-07-25T00:44:56.920Z,15.7
2017-07-25T00:46:55.393Z,15.7
2017-07-25T00:47:54.487Z,15.6
2017-07-25T00:48:53.206Z,15.6
2017-07-25T00:50:52.302Z,15.6
2017-07-25T00:51:51.496Z,15.6
2017-07-25T00:52:50.692Z,15.6
2017-07-25T00:53:49.783Z,15.6
2017-07-25T00:54:49.377Z,15.6
2017-07-25T00:55:48.580Z,15.6
2017-07-25T00:56:48.047Z,15.6
2017-07-25T00:57:47.127Z,15.6
2017-07-25T00:58:46.324Z,15.6
2017-07-25T01:00:44.805Z,15.6
2017-07-25T01:01:43.993Z,15.6
2017-07-25T01:02:43.194Z,15.6
2017-07-25T01:03:42.393Z,15.6
2017-07-25T01:04:41.472Z,15.6
2017-07-25T01:05:41.159Z,15.6
2017-07-25T01:07:39.764Z,15.6
2017-07-25T01:09:37.743Z,15.6
2017-07-25T01:11:36.333Z,15.6
2017-07-25T01:13:34.911Z,15.6
2017-07-25T01:14:05.412Z,15.6
2017-07-25T01:14:35.796Z,15.5
2017-07-25T01:15:06.337Z,15.5
2017-07-25T01:16:32.347Z,15.5
2017-07-25T01:17:31.924Z,15.6
2017-07-25T01:18:31.111Z,15.6
2017-07-25T01:20:29.704Z,15.6
2017-07-25T01:22:28.170Z,15.5
2017-07-25T01:23:27.365Z,15.5
2017-07-25T01:24:26.321Z,15.5
2017-07-25T01:24:56.707Z,15.5
2017-07-25T01:25:26.862Z,15.5
2017-07-25T01:25:57.768Z,15.5
2017-07-25T01:27:24.643Z,15.5
2017-07-25T01:28:23.727Z,15.5
2017-07-25T01:29:22.810Z,15.5
2017-07-25T01:30:22.504Z,15.5
2017-07-25T01:32:20.591Z,15.5
2017-07-25T01:33:20.066Z,15.5
2017-07-25T01:34:19.156Z,15.5
2017-07-25T01:35:18.226Z,15.5
2017-07-25T01:36:17.805Z,15.5
2017-07-25T01:37:17.029Z,15.5
2017-07-25T01:38:16.098Z,15.5
2017-07-25T01:39:15.289Z,15.5
2017-07-25T01:40:14.882Z,15.5
2017-07-25T01:42:13.475Z,15.5
2017-07-25T01:43:12.669Z,15.5
2017-07-25T01:43:43.056Z,15.5
2017-07-25T01:44:13.449Z,15.5
2017-07-25T01:44:43.957Z,15.5
2017-07-25T01:46:10.222Z,15.5
2017-07-25T01:47:09.408Z,15.5
2017-07-25T01:48:08.489Z,15.5
2017-07-25T01:49:08.080Z,15.4
2017-07-25T01:50:07.298Z,15.5
2017-07-25T01:51:06.508Z,15.5
2017-07-25T01:52:05.470Z,15.5
2017-07-25T01:54:03.946Z,15.4
2017-07-25T01:55:03.412Z,15.4
2017-07-25T01:57:01.996Z,15.5
2017-07-25T01:58:00.958Z,15.5
2017-07-25T01:59:00.649Z,15.5
2017-07-25T01:59:59.846Z,15.5
2017-07-25T02:00:58.918Z,15.5
2017-07-25T02:02:57.505Z,15.4
2017-07-25T02:03:56.709Z,15.4
2017-07-25T02:04:55.909Z,15.4
2017-07-25T02:05:26.419Z,15.4
2017-07-25T02:06:54.308Z,15.4
2017-07-25T02:07:24.827Z,15.4
2017-07-25T02:07:55.216Z,15.4
2017-07-25T02:08:25.619Z,15.4
2017-07-25T02:09:51.869Z,15.4
2017-07-25T02:10:51.571Z,15.4
2017-07-25T02:12:49.890Z,15.5
2017-07-25T02:13:49.088Z,15.4
2017-07-25T02:14:48.277Z,15.4
2017-07-25T02:15:47.492Z,15.4
2017-07-25T02:16:47.173Z,15.4
2017-07-25T02:17:46.242Z,15.4
2017-07-25T02:18:45.317Z,15.4
2017-07-25T02:19:44.885Z,15.4
2017-07-25T02:20:44.081Z,15.4
2017-07-25T02:21:43.162Z,15.4
2017-07-25T02:23:41.750Z,15.4
2017-07-25T02:26:39.603Z,15.4
2017-07-25T02:29:37.083Z,15.4
2017-07-25T02:30:36.050Z,15.3
2017-07-25T02:31:35.758Z,15.3
2017-07-25T02:32:34.943Z,15.3
2017-07-25T02:33:34.148Z,15.4
2017-07-25T02:34:33.338Z,15.4
2017-07-25T02:35:32.532Z,15.3
2017-07-25T02:36:02.926Z,15.3
2017-07-25T02:36:33.435Z,15.4
2017-07-25T02:37:06.516Z,15.4
2017-07-25T02:37:34.395Z,15.4
2017-07-25T02:38:04.679Z,15.4
2017-07-25T02:38:35.210Z,15.4
2017-07-25T02:39:29.273Z,15.4
2017-07-25T02:40:28.873Z,15.3
2017-07-25T02:41:27.952Z,15.3
2017-07-25T02:42:27.046Z,15.3
2017-07-25T02:43:26.769Z,15.3
2017-07-25T02:44:25.979Z,15.3
2017-07-25T02:45:25.194Z,15.3
2017-07-25T02:46:24.402Z,15.3
2017-07-25T02:47:23.475Z,15.3
2017-07-25T02:48:22.954Z,15.4
2017-07-25T02:49:22.047Z,15.4
2017-07-25T02:50:21.151Z,15.3
2017-07-25T02:51:20.356Z,15.3
2017-07-25T02:52:20.060Z,15.3
2017-07-25T02:53:19.272Z,15.3
2017-07-25T02:54:18.131Z,15.3
2017-07-25T02:55:17.224Z,15.3
2017-07-25T02:56:16.926Z,15.3
2017-07-25T02:57:15.875Z,15.3
2017-07-25T02:58:15.340Z,15.3
2017-07-25T02:59:14.297Z,15.3
2017-07-25T03:00:13.997Z,15.3
2017-07-25T03:01:13.086Z,15.3
2017-07-25T03:01:43.618Z,15.3
2017-07-25T03:03:11.165Z,15.2
2017-07-25T03:05:09.775Z,15.2
2017-07-25T03:06:08.981Z,15.2
2017-07-25T03:07:08.697Z,15.1
2017-07-25T03:08:07.791Z,15.1
2017-07-25T03:09:06.763Z,15.1
2017-07-25T03:10:06.115Z,15.1
2017-07-25T03:13:03.865Z,15.2
2017-07-25T03:14:03.066Z,15.2
2017-07-25T03:15:02.530Z,15.2
2017-07-25T03:16:01.737Z,15.2
2017-07-25T03:17:00.939Z,15.1
2017-07-25T03:18:00.137Z,15.1
2017-07-25T03:18:59.349Z,15.1
2017-07-25T03:19:58.564Z,15.1
2017-07-25T03:20:57.772Z,15.1
2017-07-25T03:21:56.863Z,15.1
2017-07-25T03:22:56.566Z,15.1
2017-07-25T03:23:55.767Z,15.1
2017-07-25T03:24:54.857Z,15.1
2017-07-25T03:25:53.963Z,15.1
2017-07-25T03:26:53.048Z,15
2017-07-25T03:27:52.754Z,15
2017-07-25T03:28:51.836Z,15
2017-07-25T03:29:50.931Z,15
2017-07-25T03:30:50.141Z,15
2017-07-25T03:31:20.654Z,15
2017-07-25T03:33:47.835Z,14.9
2017-07-25T03:34:18.342Z,14.9
2017-07-25T03:34:48.744Z,15
2017-07-25T03:35:46.433Z,15
2017-07-25T03:36:45.519Z,15
2017-07-25T03:37:44.592Z,15
2017-07-25T03:38:44.299Z,14.9
2017-07-25T03:39:43.494Z,14.9
2017-07-25T03:40:42.708Z,14.9
2017-07-25T03:41:41.915Z,14.8
2017-07-25T03:42:41.122Z,14.8
2017-07-25T03:43:40.216Z,14.8
2017-07-25T03:44:39.536Z,14.8
2017-07-25T03:45:38.635Z,14.8
2017-07-25T03:46:37.866Z,14.8
2017-07-25T03:47:37.065Z,14.8
2017-07-25T03:48:36.642Z,14.8
2017-07-25T03:50:35.241Z,14.8
2017-07-25T03:51:34.460Z,14.9
2017-07-25T03:52:33.544Z,14.8
2017-07-25T03:53:32.624Z,14.8
2017-07-25T03:54:31.857Z,14.9
2017-07-25T03:55:02.368Z,14.9
2017-07-25T03:55:32.765Z,14.9
2017-07-25T03:56:30.465Z,14.9
2017-07-25T03:57:29.545Z,14.9
2017-07-25T03:58:28.739Z,14.9
2017-07-25T03:59:28.330Z,14.9
2017-07-25T04:00:27.535Z,14.9
2017-07-25T04:01:26.731Z,14.8
2017-07-25T04:02:25.811Z,14.8
2017-07-25T04:03:25.014Z,14.8
2017-07-25T04:04:24.221Z,14.9
2017-07-25T04:06:22.833Z,14.9
2017-07-25T04:07:21.927Z,14.9
2017-07-25T04:08:21.428Z,14.9
2017-07-25T04:09:20.648Z,14.9
2017-07-25T04:10:19.731Z,14.9
2017-07-25T04:11:18.946Z,14.9
2017-07-25T04:11:49.346Z,14.9
2017-07-25T04:12:19.872Z,14.9
2017-07-25T04:12:50.272Z,14.9
2017-07-25T04:14:16.539Z,15
2017-07-25T04:15:15.615Z,14.9
2017-07-25T04:16:15.080Z,15
2017-07-25T04:17:14.308Z,14.9
2017-07-25T04:18:13.419Z,14.9
2017-07-25T04:19:12.893Z,14.9
2017-07-25T04:20:11.869Z,14.9
2017-07-25T04:21:10.957Z,14.9
2017-07-25T04:21:41.464Z,14.9
2017-07-25T04:22:11.866Z,14.9
2017-07-25T04:22:42.261Z,14.9
2017-07-25T04:23:12.780Z,14.8
2017-07-25T04:23:43.288Z,14.8
2017-07-25T04:24:13.809Z,14.9
2017-07-25T04:24:44.318Z,14.9
2017-07-25T04:26:07.675Z,14.9
2017-07-25T04:27:06.873Z,14.9
2017-07-25T04:28:05.969Z,14.9
2017-07-25T04:29:05.177Z,14.9
2017-07-25T04:30:04.134Z,14.9
2017-07-25T04:31:03.838Z,14.9
2017-07-25T04:32:02.923Z,14.9
2017-07-25T04:33:02.012Z,14.9
2017-07-25T04:34:01.095Z,14.9
2017-07-25T04:35:00.680Z,14.9
2017-07-25T04:35:59.751Z,14.9
2017-07-25T04:36:58.968Z,14.9
2017-07-25T04:37:58.152Z,14.9
2017-07-25T04:38:57.346Z,14.8
2017-07-25T04:39:56.553Z,14.9
2017-07-25T04:40:55.636Z,14.9
2017-07-25T04:41:55.332Z,14.8
2017-07-25T04:42:54.528Z,14.9
2017-07-25T04:43:53.380Z,14.9
2017-07-25T04:44:53.086Z,14.9
2017-07-25T04:45:52.311Z,14.9
2017-07-25T04:46:51.500Z,14.9
2017-07-25T04:48:50.174Z,14.9
2017-07-25T04:49:48.871Z,14.9
2017-07-25T04:50:48.463Z,14.9
2017-07-25T04:51:47.661Z,14.9
2017-07-25T04:52:46.632Z,14.9
2017-07-25T04:53:45.837Z,14.8
2017-07-25T04:54:45.028Z,14.8
2017-07-25T04:55:44.230Z,14.8
2017-07-25T04:56:43.450Z,14.8
2017-07-25T04:57:42.655Z,14.8
2017-07-25T04:58:42.239Z,14.8
2017-07-25T04:59:41.201Z,14.8
2017-07-25T05:00:40.402Z,14.8
2017-07-25T05:01:39.627Z,14.8
2017-07-25T05:02:38.824Z,14.8
2017-07-25T05:03:38.533Z,14.8
2017-07-25T05:04:09.056Z,14.8
2017-07-25T05:05:36.949Z,14.8
2017-07-25T05:06:35.931Z,14.8
2017-07-25T05:07:34.900Z,14.8
2017-07-25T05:08:34.608Z,14.8
2017-07-25T05:09:33.817Z,14.8
2017-07-25T05:10:33.028Z,14.8
2017-07-25T05:11:32.237Z,14.8
2017-07-25T05:12:31.190Z,14.8
2017-07-25T05:13:30.387Z,14.8
2017-07-25T05:14:29.583Z,14.8
2017-07-25T05:15:28.807Z,14.8
2017-07-25T05:16:28.379Z,14.8
2017-07-25T05:17:27.457Z,14.8
2017-07-25T05:18:26.919Z,14.8
2017-07-25T05:19:26.112Z,14.8
2017-07-25T05:19:56.494Z,14.8
2017-07-25T05:20:27.002Z,14.8
2017-07-25T05:21:24.195Z,14.8
2017-07-25T05:22:23.394Z,14.8
2017-07-25T05:23:23.098Z,14.8
2017-07-25T05:24:22.306Z,14.8
2017-07-25T05:25:21.501Z,14.8
2017-07-25T05:26:20.590Z,14.8
2017-07-25T05:27:19.787Z,14.9
2017-07-25T05:28:18.616Z,14.9
2017-07-25T05:29:18.085Z,14.9
2017-07-25T05:30:17.678Z,14.9
2017-07-25T05:31:16.876Z,14.9
2017-07-25T05:32:16.096Z,14.9
2017-07-25T05:33:15.315Z,14.9
2017-07-25T05:34:14.523Z,14.9
2017-07-25T05:35:13.599Z,14.9
2017-07-25T05:36:12.801Z,14.9
2017-07-25T05:37:11.754Z,15
2017-07-25T05:38:11.334Z,14.9
2017-07-25T05:39:10.428Z,15
2017-07-25T05:40:09.622Z,15
2017-07-25T05:41:08.707Z,15
2017-07-25T05:42:08.315Z,15
2017-07-25T05:43:07.510Z,15
2017-07-25T05:44:06.700Z,15
2017-07-25T05:45:05.913Z,15
2017-07-25T05:46:05.120Z,15
2017-07-25T05:47:04.205Z,15
2017-07-25T05:48:03.281Z,15
2017-07-25T05:49:02.984Z,15
2017-07-25T05:50:02.189Z,15
2017-07-25T05:51:01.150Z,15
2017-07-25T05:52:00.365Z,15
2017-07-25T05:52:59.830Z,15
2017-07-25T05:53:59.156Z,15
2017-07-25T05:54:58.231Z,15
2017-07-25T05:55:57.345Z,14.9
2017-07-25T05:56:56.566Z,14.9
2017-07-25T05:57:55.761Z,15
2017-07-25T05:58:54.846Z,15
2017-07-25T05:59:54.560Z,15
2017-07-25T06:00:53.757Z,15
2017-07-25T06:01:52.959Z,15
2017-07-25T06:02:52.173Z,15
2017-07-25T06:03:51.245Z,15
2017-07-25T06:04:50.611Z,15
2017-07-25T06:05:49.699Z,15
2017-07-25T06:06:48.883Z,15
2017-07-25T06:07:47.969Z,15
2017-07-25T06:08:46.940Z,15
2017-07-25T06:09:46.405Z,15
2017-07-25T06:10:16.802Z,15
2017-07-25T06:10:46.953Z,15
2017-07-25T06:11:17.468Z,15
2017-07-25T06:11:47.620Z,15
2017-07-25T06:12:18.176Z,15
2017-07-25T06:13:43.441Z,15
2017-07-25T06:14:42.643Z,15
2017-07-25T06:15:41.857Z,15
2017-07-25T06:16:40.952Z,15
2017-07-25T06:17:40.656Z,15
2017-07-25T06:18:39.744Z,15
2017-07-25T06:19:38.998Z,15
2017-07-25T06:20:38.202Z,15
2017-07-25T06:21:37.313Z,15
2017-07-25T06:22:36.505Z,15
2017-07-25T06:23:35.715Z,15
2017-07-25T06:24:34.923Z,15
2017-07-25T06:25:34.107Z,15.1
2017-07-25T06:26:33.687Z,15.1
2017-07-25T06:27:32.886Z,15.1
2017-07-25T06:28:32.093Z,15
2017-07-25T06:29:02.618Z,15
2017-07-25T06:29:33.015Z,15
2017-07-25T06:30:03.536Z,15
2017-07-25T06:31:29.802Z,15.1
2017-07-25T06:32:28.892Z,15
2017-07-25T06:33:27.973Z,15
2017-07-25T06:34:27.044Z,15
2017-07-25T06:35:26.747Z,15.1
2017-07-25T06:36:25.731Z,15.1
2017-07-25T06:37:24.923Z,15.1
2017-07-25T06:38:23.891Z,15.1
2017-07-25T06:39:23.599Z,15.1
2017-07-25T06:40:22.674Z,15.1
2017-07-25T06:41:21.877Z,15.1
2017-07-25T06:42:21.080Z,15.1
2017-07-25T06:42:51.590Z,15.1
2017-07-25T06:44:19.363Z,15.1
2017-07-25T06:45:19.059Z,15.1
2017-07-25T06:46:18.152Z,15.1
2017-07-25T06:47:17.111Z,15.1
2017-07-25T06:48:16.698Z,15.2
2017-07-25T06:49:15.900Z,15.2
2017-07-25T06:50:14.983Z,15.1
2017-07-25T06:50:45.256Z,15.1
2017-07-25T06:52:13.414Z,15.1
2017-07-25T06:53:12.486Z,15.1
2017-07-25T06:54:12.190Z,15.1
2017-07-25T06:55:11.396Z,15.1
2017-07-25T06:56:10.487Z,15.1
2017-07-25T06:57:09.321Z,15.2
2017-07-25T06:58:08.910Z,15.2
2017-07-25T06:59:08.107Z,15.1
2017-07-25T07:00:07.305Z,15.2
2017-07-25T07:01:06.501Z,15.2
2017-07-25T07:03:04.975Z,15.3
2017-07-25T07:04:04.050Z,15.3
2017-07-25T07:05:03.636Z,15.3
2017-07-25T07:06:02.842Z,15.3
2017-07-25T07:07:02.039Z,15.3
2017-07-25T07:08:01.133Z,15.4
2017-07-25T07:09:00.340Z,15.4
2017-07-25T07:09:59.915Z,15.4
2017-07-25T07:10:59.003Z,15.4
2017-07-25T07:11:58.190Z,15.4
2017-07-25T07:12:57.400Z,15.4
2017-07-25T07:13:56.478Z,15.4
2017-07-25T07:14:55.827Z,15.4
2017-07-25T07:15:55.034Z,15.5
2017-07-25T07:16:54.611Z,15.5
2017-07-25T07:17:53.597Z,15.5
2017-07-25T07:18:52.795Z,15.5
2017-07-25T07:19:51.997Z,15.6
2017-07-25T07:20:51.462Z,15.6
2017-07-25T07:21:50.430Z,15.6
2017-07-25T07:22:21.340Z,15.6
2017-07-25T07:22:51.737Z,15.6
2017-07-25T07:23:48.809Z,15.6
2017-07-25T07:24:48.392Z,15.7
2017-07-25T07:25:47.586Z,15.7
2017-07-25T07:26:46.544Z,15.7
2017-07-25T07:27:46.127Z,15.7
2017-07-25T07:28:45.090Z,15.7
2017-07-25T07:29:44.564Z,15.7
2017-07-25T07:30:43.638Z,15.7
2017-07-25T07:31:43.231Z,15.7
2017-07-25T07:32:42.428Z,15.7
2017-07-25T07:33:41.630Z,15.7
2017-07-25T07:34:40.852Z,15.7
2017-07-25T07:35:40.051Z,15.7
2017-07-25T07:36:39.242Z,15.7
2017-07-25T07:37:09.641Z,15.7
2017-07-25T07:38:37.528Z,15.7
2017-07-25T07:39:36.734Z,15.7
2017-07-25T07:40:35.934Z,15.7
2017-07-25T07:41:35.513Z,15.8
2017-07-25T07:42:34.486Z,15.8
2017-07-25T07:43:33.574Z,15.8
2017-07-25T07:44:33.281Z,15.8
2017-07-25T07:45:32.364Z,15.8
2017-07-25T07:46:31.444Z,15.8
2017-07-25T07:47:30.902Z,15.8
2017-07-25T07:48:29.755Z,15.8
2017-07-25T07:49:29.348Z,15.8
2017-07-25T07:50:28.690Z,15.8
2017-07-25T07:51:27.898Z,15.8
2017-07-25T07:52:26.981Z,15.8
2017-07-25T07:53:26.186Z,15.8
2017-07-25T07:54:25.157Z,15.8
2017-07-25T07:55:24.734Z,15.8
2017-07-25T07:56:24.203Z,15.8
2017-07-25T07:57:23.400Z,15.8
2017-07-25T07:58:22.600Z,15.8
2017-07-25T07:58:53.114Z,15.8
2017-07-25T08:00:21.000Z,15.9
2017-07-25T08:01:20.207Z,15.9
2017-07-25T08:02:19.062Z,15.9
2017-07-25T08:03:18.537Z,16
2017-07-25T08:04:18.008Z,16
2017-07-25T08:05:16.974Z,16
2017-07-25T08:06:16.679Z,16
2017-07-25T08:07:15.757Z,16
2017-07-25T08:08:14.954Z,16
2017-07-25T08:09:14.158Z,16
2017-07-25T08:10:13.361Z,16
2017-07-25T08:11:12.457Z,16
2017-07-25T08:12:12.171Z,16
2017-07-25T08:13:11.369Z,16.1
2017-07-25T08:14:10.332Z,16.1
2017-07-25T08:15:09.926Z,16
2017-07-25T08:16:09.131Z,16.1
2017-07-25T08:16:39.639Z,16.1
2017-07-25T08:17:10.158Z,16.1
2017-07-25T08:17:40.675Z,16.1
2017-07-25T08:18:11.175Z,16.1
2017-07-25T08:18:41.697Z,16.1
2017-07-25T08:20:05.945Z,16.1
2017-07-25T08:21:05.143Z,16.1
2017-07-25T08:22:04.227Z,16.1
2017-07-25T08:23:03.821Z,16.1
2017-07-25T08:24:02.909Z,16.1
2017-07-25T08:25:02.492Z,16.1
2017-07-25T08:26:01.470Z,16.1
2017-07-25T08:27:00.677Z,16.1
2017-07-25T08:27:59.872Z,16.1
2017-07-25T08:28:30.391Z,16.1
2017-07-25T08:29:00.793Z,16.2
2017-07-25T08:29:31.306Z,16.2
2017-07-25T08:30:01.713Z,16.2
2017-07-25T08:30:32.251Z,16.2
2017-07-25T08:31:57.122Z,16.2
2017-07-25T08:32:56.327Z,16.2
2017-07-25T08:33:55.525Z,16.2
2017-07-25T08:34:54.600Z,16.2
2017-07-25T08:35:54.184Z,16.2
2017-07-25T08:36:53.156Z,16.2
2017-07-25T08:37:52.232Z,16.2
2017-07-25T08:38:51.711Z,16.3
2017-07-25T08:39:50.670Z,16.3
2017-07-25T08:40:50.020Z,16.3
2017-07-25T08:41:49.740Z,16.3
2017-07-25T08:42:48.826Z,16.3
2017-07-25T08:43:47.906Z,16.3
2017-07-25T08:44:47.119Z,16.3
2017-07-25T08:46:45.706Z,16.3
2017-07-25T08:47:44.785Z,16.4
2017-07-25T08:48:44.501Z,16.4
2017-07-25T08:49:43.583Z,16.4
2017-07-25T08:50:42.788Z,16.5
2017-07-25T08:51:41.979Z,16.5
2017-07-25T08:52:41.061Z,16.5
2017-07-25T08:53:40.757Z,16.5
2017-07-25T08:54:39.972Z,16.5
2017-07-25T08:55:39.054Z,16.6
2017-07-25T08:56:38.263Z,16.6
2017-07-25T08:57:37.232Z,16.6
2017-07-25T08:58:36.858Z,16.7
2017-07-25T08:59:36.064Z,16.8
2017-07-25T09:00:35.275Z,16.8
2017-07-25T09:01:34.976Z,16.8
2017-07-25T09:02:34.187Z,16.8
2017-07-25T09:03:33.159Z,16.8
2017-07-25T09:04:32.127Z,16.8
2017-07-25T09:05:31.831Z,16.8
2017-07-25T09:06:30.915Z,16.8
2017-07-25T09:07:29.748Z,16.9
2017-07-25T09:08:29.365Z,17
2017-07-25T09:09:29.081Z,17
2017-07-25T09:09:59.483Z,17
2017-07-25T09:10:29.886Z,17.1
2017-07-25T09:11:00.398Z,17.1
2017-07-25T09:12:26.438Z,17.1
2017-07-25T09:13:26.155Z,17.1
2017-07-25T09:15:24.082Z,17.2
2017-07-25T09:16:23.672Z,17.2
2017-07-25T09:17:22.741Z,17.2
2017-07-25T09:18:22.100Z,17.2
2017-07-25T09:19:21.457Z,17.2
2017-07-25T09:20:20.653Z,17.2
2017-07-25T09:21:19.738Z,17.2
2017-07-25T09:22:19.326Z,17.3
2017-07-25T09:23:18.533Z,17.3
2017-07-25T09:24:18.027Z,17.3
2017-07-25T09:25:17.112Z,17.3
2017-07-25T09:25:47.510Z,17.3
2017-07-25T09:26:18.022Z,17.3
2017-07-25T09:27:15.710Z,17.3
2017-07-25T09:28:14.787Z,17.3
2017-07-25T09:29:13.997Z,17.3
2017-07-25T09:30:13.598Z,17.3
2017-07-25T09:31:12.575Z,17.3
2017-07-25T09:32:12.505Z,17.4
2017-07-25T09:33:11.212Z,17.4
2017-07-25T09:34:10.177Z,17.4
2017-07-25T09:35:09.879Z,17.4
2017-07-25T09:36:09.077Z,17.4
2017-07-25T09:37:08.275Z,17.4
2017-07-25T09:38:07.465Z,17.4
2017-07-25T09:39:06.932Z,17.4
2017-07-25T09:40:06.015Z,17.4
2017-07-25T09:41:05.616Z,17.4
2017-07-25T09:42:04.711Z,17.4
2017-07-25T09:43:03.672Z,17.4
2017-07-25T09:44:03.269Z,17.4
2017-07-25T09:45:02.467Z,17.4
2017-07-25T09:46:01.821Z,17.4
2017-07-25T09:47:01.173Z,17.4
2017-07-25T09:48:00.380Z,17.4
2017-07-25T09:48:59.572Z,17.4
2017-07-25T09:49:58.652Z,17.4
2017-07-25T09:50:58.370Z,17.4
2017-07-25T09:51:57.456Z,17.4
2017-07-25T09:52:57.032Z,17.4
2017-07-25T09:53:56.225Z,17.4
2017-07-25T09:54:55.317Z,17.4
2017-07-25T09:55:54.521Z,17.4
2017-07-25T09:56:53.721Z,17.4
2017-07-25T09:57:53.433Z,17.4
2017-07-25T09:58:52.643Z,17.4
2017-07-25T09:59:51.723Z,17.4
2017-07-25T10:00:50.927Z,17.4
2017-07-25T10:01:50.644Z,17.5
2017-07-25T10:02:49.855Z,17.6
2017-07-25T10:04:48.450Z,17.6
2017-07-25T10:05:47.532Z,17.8
2017-07-25T10:06:46.400Z,17.8
2017-07-25T10:07:45.990Z,18
2017-07-25T10:08:45.078Z,18
2017-07-25T10:09:44.784Z,18.1
2017-07-25T10:10:43.864Z,18.1
2017-07-25T10:11:43.066Z,18.1
2017-07-25T10:13:41.666Z,18.2
2017-07-25T10:15:40.252Z,18.3
2017-07-25T10:16:10.652Z,18.3
2017-07-25T10:16:41.190Z,18.3
2017-07-25T10:17:11.465Z,18.3
2017-07-25T10:17:41.977Z,18.3
2017-07-25T10:18:12.371Z,18.3
2017-07-25T10:18:42.760Z,18.4
2017-07-25T10:19:13.282Z,18.4
2017-07-25T10:20:36.642Z,18.5
2017-07-25T10:22:35.240Z,18.5
2017-07-25T10:23:34.951Z,18.5
2017-07-25T10:24:34.032Z,18.6
2017-07-25T10:25:33.231Z,18.6
2017-07-25T10:26:32.434Z,18.7
2017-07-25T10:27:31.892Z,18.8
2017-07-25T10:28:30.974Z,18.7
2017-07-25T10:29:30.680Z,18.7
2017-07-25T10:30:29.777Z,18.8
2017-07-25T10:31:28.977Z,18.9
2017-07-25T10:32:28.690Z,18.9
2017-07-25T10:33:27.786Z,18.8
2017-07-25T10:34:26.981Z,18.9
2017-07-25T10:36:25.332Z,18.8
2017-07-25T10:37:24.918Z,18.8
2017-07-25T10:38:24.122Z,18.8
2017-07-25T10:39:23.599Z,18.8
2017-07-25T10:40:22.679Z,18.7
2017-07-25T10:41:22.264Z,18.7
2017-07-25T10:42:21.128Z,18.8
2017-07-25T10:43:20.820Z,18.8
2017-07-25T10:44:19.886Z,18.9
2017-07-25T10:45:19.575Z,18.9
2017-07-25T10:46:18.544Z,18.8
2017-07-25T10:47:17.887Z,18.8
2017-07-25T10:47:48.163Z,18.8
2017-07-25T10:48:18.465Z,18.8
2017-07-25T10:48:48.989Z,18.8
2017-07-25T10:50:15.874Z,18.8
2017-07-25T10:51:14.850Z,18.8
2017-07-25T10:52:14.565Z,18.6
2017-07-25T10:53:13.767Z,18.6
2017-07-25T10:54:12.976Z,18.7
2017-07-25T10:55:12.692Z,18.7
2017-07-25T10:57:11.161Z,18.7
2017-07-25T10:58:10.014Z,18.6
2017-07-25T10:59:09.604Z,18.6
2017-07-25T11:00:09.203Z,18.6
2017-07-25T11:01:08.285Z,18.7
2017-07-25T11:02:07.755Z,18.7
2017-07-25T11:03:06.833Z,18.8
2017-07-25T11:04:06.409Z,18.8
2017-07-25T11:05:05.501Z,18.8
2017-07-25T11:06:04.691Z,18.9
2017-07-25T11:07:04.394Z,19
2017-07-25T11:08:03.480Z,19
2017-07-25T11:09:02.462Z,19
2017-07-25T11:10:02.050Z,19
2017-07-25T11:11:01.411Z,19.1
2017-07-25T11:12:00.611Z,19.1
2017-07-25T11:13:00.319Z,19.1
2017-07-25T11:13:59.509Z,19.1
2017-07-25T11:14:58.722Z,19.1
2017-07-25T11:15:58.306Z,19.1
2017-07-25T11:16:57.395Z,19.1
2017-07-25T11:17:56.607Z,19.1
2017-07-25T11:18:56.321Z,19.2
2017-07-25T11:19:55.529Z,19.3
2017-07-25T11:20:54.608Z,19.2
2017-07-25T11:21:54.176Z,19.2
2017-07-25T11:22:53.254Z,19.2
2017-07-25T11:23:52.836Z,19.2
2017-07-25T11:24:23.251Z,19.2
2017-07-25T11:24:53.528Z,19.2
2017-07-25T11:25:51.221Z,19.3
2017-07-25T11:26:50.925Z,19.2
2017-07-25T11:27:50.117Z,19.2
2017-07-25T11:28:49.311Z,19.2
2017-07-25T11:29:48.775Z,19.2
2017-07-25T11:30:47.864Z,19.2
2017-07-25T11:31:47.456Z,19.2
2017-07-25T11:32:46.440Z,19.2
2017-07-25T11:33:46.147Z,19.2
2017-07-25T11:34:45.229Z,19.3
2017-07-25T11:35:44.440Z,19.3
2017-07-25T11:36:44.140Z,19.3
2017-07-25T11:37:43.219Z,19.4
2017-07-25T11:38:42.299Z,19.5
2017-07-25T11:39:42.013Z,19.5
2017-07-25T11:40:41.089Z,19.3
2017-07-25T11:41:40.783Z,19.3
2017-07-25T11:42:39.864Z,19.3
2017-07-25T11:43:39.065Z,19.4
2017-07-25T11:44:09.330Z,19.4
2017-07-25T11:45:37.864Z,19.4
2017-07-25T11:46:37.576Z,19.3
2017-07-25T11:47:36.791Z,19.1
2017-07-25T11:48:35.870Z,18.8
2017-07-25T11:49:35.342Z,18.8
2017-07-25T11:50:34.929Z,18.6
2017-07-25T11:51:34.013Z,18.3
2017-07-25T11:52:33.222Z,18.2
2017-07-25T11:53:32.933Z,18.1
2017-07-25T11:55:31.008Z,18
2017-07-25T11:56:30.599Z,17.8
2017-07-25T11:57:29.816Z,17.8
2017-07-25T11:58:29.409Z,17.6
2017-07-25T11:59:28.589Z,17.5
2017-07-25T12:00:28.238Z,17.5
2017-07-25T12:01:27.432Z,17.5
2017-07-25T12:02:26.627Z,17.5
2017-07-25T12:03:26.212Z,17.6
2017-07-25T12:04:25.418Z,17.5
2017-07-25T12:05:24.617Z,17.5
2017-07-25T12:05:55.147Z,17.5
2017-07-25T12:06:25.408Z,17.5
2017-07-25T12:06:56.309Z,17.5
2017-07-25T12:08:22.686Z,17.5
2017-07-25T12:10:21.285Z,17.5
2017-07-25T12:11:20.372Z,17.3
2017-07-25T12:12:19.730Z,17.3
2017-07-25T12:13:19.192Z,17.3
2017-07-25T12:14:18.295Z,17.3
2017-07-25T12:15:17.888Z,17.3
2017-07-25T12:16:17.093Z,17.2
2017-07-25T12:17:16.690Z,17.2
2017-07-25T12:18:15.764Z,17.2
2017-07-25T12:19:14.995Z,17.1
2017-07-25T12:20:14.194Z,17.1
2017-07-25T12:21:13.779Z,17.1
2017-07-25T12:22:12.980Z,17.1
2017-07-25T12:23:12.066Z,17.1
2017-07-25T12:25:11.038Z,17.1
2017-07-25T12:26:10.015Z,17
2017-07-25T12:27:09.600Z,17
2017-07-25T12:28:08.439Z,17
2017-07-25T12:29:08.031Z,17
2017-07-25T12:30:06.995Z,17
2017-07-25T12:31:06.698Z,16.9
2017-07-25T12:32:05.902Z,16.9
2017-07-25T12:33:05.606Z,17
2017-07-25T12:34:04.808Z,17
2017-07-25T12:35:03.893Z,17
2017-07-25T12:35:34.420Z,17
2017-07-25T12:36:04.817Z,17
2017-07-25T12:36:35.211Z,17
2017-07-25T12:37:05.719Z,17
2017-07-25T12:37:36.236Z,17
2017-07-25T12:38:06.519Z,17
2017-07-25T12:38:36.917Z,17
2017-07-25T12:40:00.272Z,16.8
2017-07-25T12:40:59.860Z,16.7
2017-07-25T12:42:58.449Z,16.8
2017-07-25T12:43:57.541Z,16.8
2017-07-25T12:44:57.239Z,16.9
2017-07-25T12:45:56.457Z,17
2017-07-25T12:46:55.664Z,16.9
2017-07-25T12:47:54.853Z,17
2017-07-25T12:48:54.069Z,17
2017-07-25T12:49:53.530Z,17.1
2017-07-25T12:50:52.733Z,17.1
2017-07-25T12:51:51.961Z,17.2
2017-07-25T12:52:51.304Z,17.3
2017-07-25T12:53:50.496Z,17.3
2017-07-25T12:54:50.072Z,17.3
2017-07-25T12:55:49.159Z,17.4
2017-07-25T12:56:48.752Z,17.3
2017-07-25T12:57:47.841Z,17.3
2017-07-25T12:58:47.313Z,17.4
2017-07-25T12:59:46.036Z,17.4
2017-07-25T13:00:45.546Z,17.4
2017-07-25T13:01:45.252Z,17.3
2017-07-25T13:02:44.457Z,17.3
2017-07-25T13:03:43.658Z,17.2
2017-07-25T13:04:42.749Z,17.3
2017-07-25T13:05:42.333Z,17.3
2017-07-25T13:06:41.437Z,17.3
2017-07-25T13:07:41.134Z,17.3
2017-07-25T13:08:40.356Z,17.3
2017-07-25T13:09:39.439Z,17.3
2017-07-25T13:10:38.903Z,17.3
2017-07-25T13:11:37.862Z,17.3
2017-07-25T13:13:36.335Z,17.3
2017-07-25T13:14:35.924Z,17.3
2017-07-25T13:15:35.010Z,17.2
2017-07-25T13:16:34.603Z,17.1
2017-07-25T13:17:33.800Z,17.1
2017-07-25T13:18:32.885Z,17.1
2017-07-25T13:19:32.467Z,17.2
2017-07-25T13:20:31.675Z,17.1
2017-07-25T13:21:31.149Z,17.1
2017-07-25T13:22:30.351Z,17.2
2017-07-25T13:23:29.438Z,17.2
2017-07-25T13:24:29.017Z,17.2
2017-07-25T13:25:28.101Z,17.1
2017-07-25T13:26:27.175Z,17.2
2017-07-25T13:27:26.755Z,17.2
2017-07-25T13:28:25.831Z,17.3
2017-07-25T13:29:25.419Z,17.3